Campo, Colorado
Current Conditions -  °F | °C
As of 5:55 PM on Wednesday 17 Dec 2014 (Local Time) from KCAO Reporting Station
Light Rain Light Rain  
Wind Chill: 30°   Ceiling: 4500
Heat Index: 38°   Visibility: 10mi
Dew Point: 29°   Wind: 14mph
Humidity: 70%   Direction: 20°NNE
Pressure: 29.92"   Gusts: NA
Location:  37.11°N, 102.58°W
Report Text: KCAO 180055Z AUTO 02012KT 10SM -RA BKN045 OVC050 03/M02 A2992 RMK AO2 RAB51 SLP138 P0000 T00331017
Loading
Personal Weather Stations






























Interactive Weather Map New forecast layout! Learn more

10-Day Weather Forecast

Advertisements
Track Severe Weather on mobile